Weather at Aspirus Wausau Hospital Heliport

Public forecast

Using degrees Fahrenheit for public forecast. Weather courtesy of forecast.io.

Closest aviation weather report (METAR) to Aspirus Wausau Hospital Heliport

Closest report is Wausau Downtown Airport, 3.0 nm (5.5 km) SE. Retrieved 2021/06/23 01:54 UTC (14 minutes ago):

KAUW 230154Z AUTO 00000KT 10SM CLR 18/07 A2991 RMK AO2 SLP130 T01780072

Closest aviation forecast (TAF) to Aspirus Wausau Hospital Heliport

Closest forecast is Wausau Downtown Airport, 3.0 nm (5.5 km) SE. Retrieved 2021-06-23 00:39 UTC (1 hour ago):

TAF KAUW 222336Z 2300/2324 25006KT P6SM SCT070 FM230300 15004KT P6SM SCT250 FM231000 16005KT P6SM BKN070 FM231200 16005KT P6SM BKN050 TEMPO 2313/2317 BKN015 FM231700 19008G15KT P6SM BKN025 FM231900 19009G16KT P6SM SCT035